createdAt,value
2023-05-19T00:01:33.123Z,4.07
2023-05-19T00:04:02.955Z,4.18
2023-05-19T00:06:32.270Z,3.60
2023-05-19T00:09:13.829Z,3.30
2023-05-19T00:11:41.008Z,3.60
2023-05-19T00:14:09.774Z,3.92
2023-05-19T00:16:38.096Z,4.53
2023-05-19T00:19:06.552Z,3.40
2023-05-19T00:21:33.347Z,3.05
2023-05-19T00:24:00.004Z,3.65
2023-05-19T00:26:27.718Z,3.60
2023-05-19T00:28:54.673Z,3.40
2023-05-19T00:31:21.805Z,3.97
2023-05-19T00:33:49.544Z,3.40
2023-05-19T00:36:16.126Z,3.50
2023-05-19T00:38:52.163Z,3.53
2023-05-19T00:41:18.879Z,3.53
2023-05-19T00:43:45.763Z,3.60
2023-05-19T00:46:12.467Z,3.42
2023-05-19T00:48:39.484Z,3.80
2023-05-19T00:51:06.813Z,3.10
2023-05-19T00:53:34.806Z,3.13
2023-05-19T00:56:03.149Z,3.20
2023-05-19T00:58:36.178Z,4.43
2023-05-19T01:01:03.616Z,3.78
2023-05-19T01:03:32.690Z,3.70
2023-05-19T01:06:01.831Z,3.90
2023-05-19T01:08:29.383Z,3.45
2023-05-19T01:10:56.097Z,3.25
2023-05-19T01:13:22.956Z,3.83
2023-05-19T01:16:01.270Z,3.75
2023-05-19T01:18:43.700Z,3.95
2023-05-19T01:21:48.076Z,3.53
2023-05-19T01:24:57.934Z,3.35
2023-05-19T01:27:48.417Z,3.70
2023-05-19T01:33:11.891Z,3.42
2023-05-19T01:38:09.980Z,3.72
2023-05-19T01:40:40.498Z,3.83
2023-05-19T01:43:09.296Z,4.28
2023-05-19T01:45:41.100Z,4.00
2023-05-19T01:48:09.980Z,4.38
2023-05-19T01:50:37.805Z,4.35
2023-05-19T01:53:04.562Z,4.00
2023-05-19T01:55:41.295Z,4.20
2023-05-19T01:58:17.751Z,4.38
2023-05-19T02:01:03.577Z,4.18
2023-05-19T02:03:49.046Z,4.38
2023-05-19T02:06:27.448Z,5.97
2023-05-19T02:09:06.902Z,5.18
2023-05-19T02:11:37.422Z,4.30
2023-05-19T02:14:11.338Z,4.72
2023-05-19T02:16:39.202Z,4.70
2023-05-19T02:19:06.004Z,5.53
2023-05-19T02:21:33.905Z,4.78
2023-05-19T02:24:00.916Z,4.50
2023-05-19T02:26:33.915Z,4.85
2023-05-19T02:29:00.425Z,4.32
2023-05-19T02:31:27.126Z,3.90
2023-05-19T02:33:53.683Z,4.40
2023-05-19T02:36:22.520Z,5.18
2023-05-19T02:38:49.140Z,4.57
2023-05-19T02:41:22.328Z,5.32
2023-05-19T02:43:49.194Z,5.15
2023-05-19T02:46:15.905Z,4.88
2023-05-19T02:48:42.512Z,5.07
2023-05-19T02:51:13.342Z,5.00
2023-05-19T02:53:40.054Z,4.90
2023-05-19T02:56:06.916Z,4.72
2023-05-19T02:58:33.479Z,5.20
2023-05-19T03:01:00.060Z,4.78
2023-05-19T03:03:27.208Z,5.25
2023-05-19T03:06:00.207Z,5.45
2023-05-19T03:08:26.755Z,5.40
2023-05-19T03:10:53.492Z,5.38
2023-05-19T03:13:20.120Z,5.35
2023-05-19T03:15:47.529Z,5.55
2023-05-19T03:18:14.273Z,5.20
2023-05-19T03:20:42.569Z,6.25
2023-05-19T03:23:09.279Z,5.80
2023-05-19T03:25:36.376Z,5.03
2023-05-19T03:28:03.488Z,5.30
2023-05-19T03:30:30.224Z,5.25
2023-05-19T03:32:57.141Z,5.22
2023-05-19T03:35:24.876Z,4.78
2023-05-19T03:37:51.488Z,5.32
2023-05-19T03:40:19.029Z,5.03
2023-05-19T03:42:45.730Z,5.38
2023-05-19T03:45:12.343Z,4.57
2023-05-19T03:47:39.325Z,5.45
2023-05-19T03:50:06.515Z,5.20
2023-05-19T03:52:33.700Z,4.85
2023-05-19T03:55:00.376Z,5.20
2023-05-19T03:57:30.125Z,5.07
2023-05-19T03:59:56.732Z,5.15
2023-05-19T04:02:23.460Z,5.80
2023-05-19T04:04:51.396Z,5.63
2023-05-19T04:07:18.124Z,6.60
2023-05-19T04:09:45.220Z,6.03
2023-05-19T04:12:12.063Z,6.88
2023-05-19T04:14:38.648Z,7.60
2023-05-19T04:17:09.765Z,6.90
2023-05-19T04:19:36.312Z,7.20
2023-05-19T04:22:02.963Z,6.60
2023-05-19T04:24:33.847Z,6.53
2023-05-19T04:27:05.026Z,6.35
2023-05-19T04:29:32.684Z,6.90
2023-05-19T04:32:01.069Z,6.70
2023-05-19T04:34:28.734Z,6.30
2023-05-19T04:36:55.605Z,6.00
2023-05-19T04:39:29.455Z,6.72
2023-05-19T04:41:56.788Z,6.22
2023-05-19T04:44:23.673Z,6.68
2023-05-19T04:46:54.367Z,7.00
2023-05-19T04:49:24.413Z,6.97
2023-05-19T04:51:53.372Z,6.57
2023-05-19T04:54:22.310Z,5.95
2023-05-19T04:57:03.876Z,6.38
2023-05-19T04:59:31.046Z,6.88
2023-05-19T05:02:01.925Z,5.80
2023-05-19T05:04:28.586Z,7.82
2023-05-19T05:06:55.162Z,6.05
2023-05-19T05:09:21.992Z,5.57
2023-05-19T05:11:48.983Z,5.35
2023-05-19T05:14:16.456Z,5.68
2023-05-19T05:16:43.682Z,6.13
2023-05-19T05:19:12.995Z,5.22
2023-05-19T05:21:40.132Z,5.57
2023-05-19T05:24:23.194Z,5.30
2023-05-19T05:26:49.909Z,5.25
2023-05-19T05:29:16.387Z,5.22
2023-05-19T05:31:45.081Z,5.97
2023-05-19T05:34:11.630Z,5.30
2023-05-19T05:36:38.272Z,4.53
2023-05-19T05:39:05.655Z,4.78
2023-05-19T05:41:35.448Z,4.53
2023-05-19T05:44:02.522Z,4.70
2023-05-19T05:46:29.341Z,4.60
2023-05-19T05:48:57.171Z,4.18
2023-05-19T05:51:23.989Z,3.70
2023-05-19T05:53:53.756Z,3.70
2023-05-19T05:56:21.018Z,4.32
2023-05-19T05:58:52.112Z,3.97
2023-05-19T06:01:21.027Z,3.80
2023-05-19T06:03:47.792Z,4.00
2023-05-19T06:06:14.401Z,3.75
2023-05-19T06:08:40.975Z,4.10
2023-05-19T06:11:11.765Z,3.72
2023-05-19T06:13:39.199Z,3.80
2023-05-19T06:16:06.202Z,3.50
2023-05-19T06:18:32.891Z,3.58
2023-05-19T06:20:59.445Z,3.22
2023-05-19T06:23:29.218Z,3.60
2023-05-19T06:25:56.440Z,2.95
2023-05-19T06:28:28.121Z,3.72
2023-05-19T06:30:54.645Z,3.17
2023-05-19T06:33:21.223Z,3.60
2023-05-19T06:35:51.000Z,3.55
2023-05-19T06:38:17.806Z,3.25
2023-05-19T06:40:48.108Z,3.10
2023-05-19T06:43:14.654Z,2.90
2023-05-19T06:45:41.346Z,3.25
2023-05-19T06:49:29.329Z,3.47
2023-05-19T06:51:55.829Z,3.00
2023-05-19T06:54:22.494Z,3.40
2023-05-19T06:56:49.142Z,3.75
2023-05-19T06:59:21.809Z,3.17
2023-05-19T07:01:48.311Z,3.22
2023-05-19T07:04:15.248Z,3.33
2023-05-19T07:06:42.159Z,3.60
2023-05-19T07:09:09.029Z,3.30
2023-05-19T07:11:36.256Z,3.25
2023-05-19T07:14:02.805Z,3.53
2023-05-19T07:16:29.287Z,3.40
2023-05-19T07:18:55.999Z,3.38
2023-05-19T07:21:22.473Z,3.60
2023-05-19T07:23:49.047Z,2.95
2023-05-19T07:26:15.572Z,3.50
2023-05-19T07:28:43.513Z,3.40
2023-05-19T07:31:10.173Z,3.30
2023-05-19T07:33:36.611Z,3.47
2023-05-19T07:36:03.452Z,3.15
2023-05-19T07:38:34.392Z,3.65
2023-05-19T07:41:01.829Z,3.40
2023-05-19T07:43:28.459Z,3.30
2023-05-19T07:45:56.498Z,3.30
2023-05-19T07:48:24.701Z,3.55
2023-05-19T07:50:55.168Z,3.90
2023-05-19T07:53:22.700Z,3.70
2023-05-19T07:55:49.243Z,3.97
2023-05-19T07:58:15.879Z,3.60
2023-05-19T08:00:46.166Z,4.28
2023-05-19T08:05:44.520Z,3.80
2023-05-19T08:08:11.994Z,3.92
2023-05-19T08:10:41.491Z,3.55
2023-05-19T08:13:08.791Z,3.97
2023-05-19T08:15:35.465Z,3.70
2023-05-19T08:18:03.571Z,3.90
2023-05-19T08:20:30.479Z,3.95
2023-05-19T08:22:57.176Z,3.97
2023-05-19T08:25:24.094Z,4.07
2023-05-19T08:27:50.863Z,4.18
2023-05-19T08:30:17.449Z,3.83
2023-05-19T08:32:43.917Z,3.70
2023-05-19T08:35:11.132Z,4.25
2023-05-19T08:37:38.759Z,4.35
2023-05-19T08:40:06.472Z,7.00
2023-05-19T08:42:33.941Z,5.80
2023-05-19T08:45:02.192Z,4.55
2023-05-19T08:47:29.505Z,4.10
2023-05-19T08:50:11.039Z,4.18
2023-05-19T08:53:04.732Z,3.90
2023-05-19T08:55:41.258Z,4.30
2023-05-19T08:58:08.683Z,4.35
2023-05-19T09:00:36.055Z,4.28
2023-05-19T09:03:17.623Z,3.83
2023-05-19T09:05:50.501Z,4.28
2023-05-19T09:08:18.456Z,4.05
2023-05-19T09:10:45.237Z,4.47
2023-05-19T09:13:11.948Z,3.58
2023-05-19T09:15:39.168Z,4.57
2023-05-19T09:18:12.393Z,3.70
2023-05-19T09:20:44.317Z,4.30
2023-05-19T09:23:16.158Z,3.80
2023-05-19T09:25:52.729Z,3.97
2023-05-19T09:28:26.093Z,4.30
2023-05-19T09:31:02.718Z,4.95
2023-05-19T09:33:29.988Z,4.57
2023-05-19T09:35:57.428Z,4.20
2023-05-19T09:38:25.915Z,4.90
2023-05-19T09:40:53.774Z,4.75
2023-05-19T09:43:21.571Z,4.32
2023-05-19T09:45:55.936Z,4.30
2023-05-19T09:48:26.519Z,4.00
2023-05-19T09:50:54.007Z,4.40
2023-05-19T09:53:22.454Z,4.53
2023-05-19T09:55:49.964Z,5.53
2023-05-19T09:58:20.048Z,4.95
2023-05-19T10:00:47.978Z,4.25
2023-05-19T10:03:17.857Z,4.28
2023-05-19T10:05:45.093Z,13.02
2023-05-19T10:08:18.758Z,8.35
2023-05-19T10:10:47.164Z,5.20
2023-05-19T10:13:14.506Z,4.43
2023-05-19T10:15:57.188Z,4.20
2023-05-19T10:18:26.259Z,3.30
2023-05-19T10:20:53.256Z,3.80
2023-05-19T10:23:19.708Z,3.55
2023-05-19T10:25:49.219Z,3.80
2023-05-19T10:28:21.219Z,3.50
2023-05-19T10:30:53.311Z,3.63
2023-05-19T10:33:29.077Z,3.50
2023-05-19T10:36:15.994Z,3.53
2023-05-19T10:38:52.249Z,3.05
2023-05-19T10:41:35.792Z,3.30
2023-05-19T10:44:08.642Z,2.92
2023-05-19T10:46:35.467Z,2.85
2023-05-19T10:49:03.155Z,3.30
2023-05-19T10:51:34.010Z,2.95
2023-05-19T10:54:10.453Z,3.17
2023-05-19T10:56:47.446Z,3.35
2023-05-19T10:59:35.565Z,3.17
2023-05-19T11:02:06.435Z,3.50
2023-05-19T11:04:50.139Z,3.42
2023-05-19T11:07:22.413Z,3.25
2023-05-19T11:09:53.089Z,3.50
2023-05-19T11:12:21.790Z,3.50
2023-05-19T11:14:48.786Z,3.40
2023-05-19T11:17:16.296Z,3.47
2023-05-19T11:19:53.891Z,3.30
2023-05-19T11:22:24.866Z,3.13
2023-05-19T11:24:54.145Z,3.30
2023-05-19T11:27:20.640Z,2.90
2023-05-19T11:29:48.631Z,3.60
2023-05-19T11:32:16.102Z,3.20
2023-05-19T11:34:44.412Z,3.05
2023-05-19T11:37:11.461Z,6.28
2023-05-19T11:39:39.375Z,3.88
2023-05-19T11:42:06.124Z,3.40
2023-05-19T11:44:33.739Z,3.33
2023-05-19T11:47:00.369Z,3.42
2023-05-19T11:49:30.018Z,4.65
2023-05-19T11:51:57.441Z,3.90
2023-05-19T11:54:31.567Z,3.20
2023-05-19T11:57:01.677Z,3.25
2023-05-19T11:59:35.478Z,3.40
2023-05-19T12:02:14.375Z,3.58
2023-05-19T12:04:42.115Z,2.97
2023-05-19T12:07:08.888Z,2.92
2023-05-19T12:09:35.748Z,3.28
2023-05-19T12:12:03.116Z,3.20
2023-05-19T12:14:31.167Z,2.90
2023-05-19T12:16:58.195Z,2.92
2023-05-19T12:19:26.144Z,3.03
2023-05-19T12:21:53.526Z,3.33
2023-05-19T12:24:20.644Z,3.15
2023-05-19T12:26:50.201Z,3.33
2023-05-19T12:29:17.231Z,2.75
2023-05-19T12:31:46.539Z,2.90
2023-05-19T12:34:13.196Z,2.97
2023-05-19T12:36:41.501Z,2.75
2023-05-19T12:39:09.591Z,2.97
2023-05-19T12:41:36.189Z,3.20
2023-05-19T12:44:15.073Z,3.13
2023-05-19T12:46:44.260Z,3.40
2023-05-19T12:49:11.154Z,3.00
2023-05-19T12:51:37.783Z,3.00
2023-05-19T12:54:04.866Z,3.13
2023-05-19T12:56:32.506Z,3.28
2023-05-19T12:59:01.465Z,2.90
2023-05-19T13:01:29.555Z,3.08
2023-05-19T13:03:56.444Z,2.83
2023-05-19T13:06:23.309Z,3.28
2023-05-19T13:08:49.749Z,3.05
2023-05-19T13:11:17.565Z,2.70
2023-05-19T13:13:44.144Z,2.85
2023-05-19T13:16:10.877Z,2.70
2023-05-19T13:18:38.415Z,3.42
2023-05-19T13:21:06.991Z,4.13
2023-05-19T13:23:34.744Z,3.17
2023-05-19T13:26:01.605Z,3.10
2023-05-19T13:28:28.190Z,3.22
2023-05-19T13:30:55.222Z,3.22
2023-05-19T13:33:21.837Z,3.22
2023-05-19T13:35:49.322Z,3.13
2023-05-19T13:38:15.853Z,3.55
2023-05-19T13:40:42.350Z,3.88
2023-05-19T13:43:09.654Z,3.47
2023-05-19T13:45:36.557Z,3.40
2023-05-19T13:48:03.316Z,3.42
2023-05-19T13:50:30.242Z,3.50
2023-05-19T13:52:56.792Z,3.05
2023-05-19T13:55:26.310Z,3.40
2023-05-19T13:57:56.115Z,3.50
2023-05-19T14:00:22.707Z,3.40
2023-05-19T14:02:49.312Z,3.10
2023-05-19T14:05:15.887Z,3.45
2023-05-19T14:07:42.716Z,3.35
2023-05-19T14:10:09.753Z,3.28
2023-05-19T14:12:47.842Z,3.97
2023-05-19T14:15:19.492Z,3.42
2023-05-19T14:17:46.346Z,3.50
2023-05-19T14:20:13.172Z,3.72
2023-05-19T14:22:39.797Z,3.28
2023-05-19T14:25:07.062Z,3.22
2023-05-19T14:27:33.718Z,3.92
2023-05-19T14:30:00.291Z,3.50
2023-05-19T14:32:29.471Z,3.25
2023-05-19T14:37:23.193Z,3.30
2023-05-19T14:39:49.913Z,3.03
2023-05-19T14:42:16.537Z,3.40
2023-05-19T14:44:45.213Z,3.13
2023-05-19T14:47:12.575Z,3.40
2023-05-19T14:49:39.401Z,3.15
2023-05-19T14:52:06.256Z,3.33
2023-05-19T14:54:33.827Z,3.10
2023-05-19T14:57:01.525Z,3.10
2023-05-19T14:59:29.455Z,3.28
2023-05-19T15:01:56.151Z,2.63
2023-05-19T15:04:23.038Z,2.88
2023-05-19T15:06:58.226Z,3.05
2023-05-19T15:09:32.207Z,3.22
2023-05-19T15:12:01.074Z,3.20
2023-05-19T15:14:27.983Z,3.22
2023-05-19T15:16:56.565Z,3.05
2023-05-19T15:19:23.144Z,2.92
2023-05-19T15:21:50.704Z,3.30
2023-05-19T15:24:17.363Z,3.20
2023-05-19T15:26:44.002Z,3.22
2023-05-19T15:29:10.562Z,2.95
2023-05-19T15:31:38.488Z,3.17
2023-05-19T15:34:05.307Z,3.17
2023-05-19T15:36:32.974Z,3.20
2023-05-19T15:39:03.077Z,2.80
2023-05-19T15:43:57.059Z,3.00
2023-05-19T15:46:23.810Z,2.70
2023-05-19T15:48:50.681Z,2.50
2023-05-19T15:51:17.678Z,2.70
2023-05-19T15:53:44.196Z,7.90
2023-05-19T15:56:11.033Z,3.72
2023-05-19T16:01:26.415Z,2.97
2023-05-19T16:03:53.209Z,3.20
2023-05-19T16:06:20.026Z,4.70
2023-05-19T16:08:46.593Z,6.20
2023-05-19T16:11:13.671Z,3.70
2023-05-19T16:13:40.193Z,3.35
2023-05-19T16:16:06.950Z,2.78
2023-05-19T16:18:33.456Z,2.50
2023-05-19T16:21:00.001Z,2.50
2023-05-19T16:23:27.475Z,2.83
2023-05-19T16:25:57.499Z,2.50
2023-05-19T16:30:51.621Z,2.58
2023-05-19T16:33:18.105Z,2.42
2023-05-19T16:35:44.571Z,2.40
2023-05-19T16:38:11.401Z,2.50
2023-05-19T16:40:41.218Z,2.20
2023-05-19T16:43:09.840Z,2.22
2023-05-19T16:45:36.561Z,2.40
2023-05-19T16:48:03.602Z,2.20
2023-05-19T16:50:30.336Z,2.05
2023-05-19T16:52:56.892Z,2.03
2023-05-19T16:55:28.602Z,2.13
2023-05-19T16:57:56.208Z,2.35
2023-05-19T17:00:23.029Z,2.35
2023-05-19T17:02:49.557Z,2.17
2023-05-19T17:05:16.440Z,2.15
2023-05-19T17:07:42.956Z,2.30
2023-05-19T17:10:09.652Z,2.25
2023-05-19T17:12:36.940Z,2.10
2023-05-19T17:15:03.788Z,2.17
2023-05-19T17:17:36.573Z,2.20
2023-05-19T17:20:03.511Z,2.00
2023-05-19T17:22:30.471Z,2.20
2023-05-19T17:24:57.525Z,2.20
2023-05-19T17:27:24.100Z,2.30
2023-05-19T17:29:50.921Z,2.40
2023-05-19T17:32:17.694Z,2.42
2023-05-19T17:34:44.312Z,2.53
2023-05-19T17:37:11.205Z,2.40
2023-05-19T17:39:38.030Z,2.53
2023-05-19T17:42:08.889Z,2.80
2023-05-19T17:44:36.282Z,2.60
2023-05-19T17:47:06.362Z,2.70
2023-05-19T17:49:33.132Z,3.17
2023-05-19T17:52:06.615Z,3.10
2023-05-19T17:54:33.470Z,3.10
2023-05-19T17:57:03.747Z,3.03
2023-05-19T17:59:31.351Z,2.78
2023-05-19T18:01:59.704Z,2.92
2023-05-19T18:04:27.881Z,2.65
2023-05-19T18:06:56.817Z,2.80
2023-05-19T18:09:28.613Z,2.70
2023-05-19T18:11:55.684Z,3.00
2023-05-19T18:14:23.536Z,3.00
2023-05-19T18:16:52.948Z,2.85
2023-05-19T18:19:24.841Z,2.80
2023-05-19T18:21:51.795Z,2.92
2023-05-19T18:24:23.322Z,2.78
2023-05-19T18:26:50.035Z,2.80
2023-05-19T18:29:16.598Z,2.80
2023-05-19T18:31:43.368Z,2.60
2023-05-19T18:34:11.600Z,2.58
2023-05-19T18:36:41.741Z,2.60
2023-05-19T18:39:08.770Z,2.60
2023-05-19T18:41:37.725Z,2.60
2023-05-19T18:44:08.110Z,2.75
2023-05-19T18:46:35.161Z,2.90
2023-05-19T18:49:03.525Z,2.60
2023-05-19T18:51:31.484Z,2.70
2023-05-19T18:54:22.652Z,2.33
2023-05-19T18:56:50.607Z,2.42
2023-05-19T18:59:17.330Z,2.40
2023-05-19T19:01:49.179Z,2.40
2023-05-19T19:04:18.283Z,2.53
2023-05-19T19:06:45.319Z,2.70
2023-05-19T19:09:13.422Z,2.58
2023-05-19T19:11:43.074Z,2.28
2023-05-19T19:14:10.677Z,2.30
2023-05-19T19:16:40.803Z,2.60
2023-05-19T19:19:07.919Z,2.30
2023-05-19T19:21:35.846Z,2.10
2023-05-19T19:24:04.007Z,2.35
2023-05-19T19:26:31.884Z,2.25
2023-05-19T19:28:58.648Z,2.10
2023-05-19T19:31:33.402Z,2.15
2023-05-19T19:34:03.774Z,2.45
2023-05-19T19:38:59.081Z,2.15
2023-05-19T19:41:28.155Z,2.20
2023-05-19T19:43:54.928Z,2.05
2023-05-19T19:46:22.877Z,2.30
2023-05-19T19:48:49.576Z,2.10
2023-05-19T19:51:17.592Z,2.30
2023-05-19T19:53:55.741Z,2.20
2023-05-19T19:56:24.694Z,2.00
2023-05-19T19:58:55.703Z,1.90
2023-05-19T20:01:28.147Z,2.10
2023-05-19T20:03:59.110Z,2.00
2023-05-19T20:06:28.815Z,2.00
2023-05-19T20:08:56.905Z,1.80
2023-05-19T20:11:24.620Z,2.08
2023-05-19T20:13:53.241Z,2.10
2023-05-19T20:16:22.290Z,1.90
2023-05-19T20:18:54.348Z,1.90
2023-05-19T20:21:21.674Z,1.80
2023-05-19T20:23:51.299Z,1.80
2023-05-19T20:26:18.337Z,1.70
2023-05-19T20:28:47.439Z,1.75
2023-05-19T20:31:15.250Z,1.90
2023-05-19T20:33:42.108Z,1.88
2023-05-19T20:36:15.042Z,2.00
2023-05-19T20:38:43.142Z,2.08
2023-05-19T20:41:12.582Z,1.90
2023-05-19T20:43:39.657Z,1.98
2023-05-19T20:46:13.162Z,1.90
2023-05-19T20:48:40.244Z,1.92
2023-05-19T20:51:07.572Z,1.73
2023-05-19T20:53:36.521Z,1.90
2023-05-19T20:56:05.478Z,1.95
2023-05-19T20:58:33.720Z,1.95
2023-05-19T21:01:03.187Z,1.83
2023-05-19T21:03:30.902Z,1.90
2023-05-19T21:05:59.198Z,1.80
2023-05-19T21:08:26.925Z,1.88
2023-05-19T21:10:53.814Z,1.80
2023-05-19T21:13:24.916Z,2.13
2023-05-19T21:15:56.441Z,1.90
2023-05-19T21:18:24.215Z,2.13
2023-05-19T21:20:55.809Z,1.70
2023-05-19T21:23:23.006Z,1.67
2023-05-19T21:25:50.998Z,1.67
2023-05-19T21:28:18.726Z,2.05
2023-05-19T21:30:49.446Z,1.77
2023-05-19T21:33:17.727Z,1.80
2023-05-19T21:35:46.636Z,1.95
2023-05-19T21:38:23.377Z,1.95
2023-05-19T21:40:57.834Z,2.00
2023-05-19T21:43:24.869Z,1.92
2023-05-19T21:45:56.914Z,1.88
2023-05-19T21:48:24.721Z,1.60
2023-05-19T21:50:56.103Z,1.90
2023-05-19T21:53:25.106Z,2.00
2023-05-19T21:55:52.806Z,2.05
2023-05-19T21:58:27.186Z,1.80
2023-05-19T22:00:57.691Z,1.70
2023-05-19T22:05:53.474Z,1.83
2023-05-19T22:08:26.250Z,1.90
2023-05-19T22:10:59.296Z,1.83
2023-05-19T22:13:26.667Z,1.92
2023-05-19T22:15:53.924Z,2.10
2023-05-19T22:18:20.940Z,1.80
2023-05-19T22:20:47.698Z,1.60
2023-05-19T22:23:14.817Z,1.90
2023-05-19T22:25:41.635Z,2.00
2023-05-19T22:28:09.581Z,1.80
2023-05-19T22:30:39.320Z,2.20
2023-05-19T22:33:08.467Z,1.92
2023-05-19T22:35:35.716Z,2.20
2023-05-19T22:38:02.871Z,2.92
2023-05-19T22:40:33.979Z,2.60
2023-05-19T22:43:01.038Z,2.20
2023-05-19T22:45:27.742Z,2.40
2023-05-19T22:47:55.533Z,2.28
2023-05-19T22:50:23.460Z,1.95
2023-05-19T22:52:50.510Z,2.03
2023-05-19T22:55:17.342Z,2.08
2023-05-19T22:57:44.099Z,2.15
2023-05-19T23:00:14.480Z,1.73
2023-05-19T23:05:21.676Z,1.73
2023-05-19T23:07:56.638Z,1.75
2023-05-19T23:10:25.945Z,1.90
2023-05-19T23:12:52.646Z,1.95
2023-05-19T23:15:19.339Z,1.73
2023-05-19T23:17:47.204Z,1.90
2023-05-19T23:20:14.401Z,1.85
2023-05-19T23:22:41.530Z,1.73
2023-05-19T23:25:08.783Z,1.70
2023-05-19T23:27:36.407Z,1.80
2023-05-19T23:30:04.255Z,1.65
2023-05-19T23:32:31.175Z,1.67
2023-05-19T23:35:10.795Z,1.80
2023-05-19T23:37:37.421Z,2.00
2023-05-19T23:40:06.108Z,1.65
2023-05-19T23:42:33.184Z,2.17
2023-05-19T23:44:59.879Z,1.90
2023-05-19T23:47:26.904Z,2.03
2023-05-19T23:49:53.606Z,2.10
2023-05-19T23:52:20.245Z,1.80
2023-05-19T23:54:46.893Z,1.80
2023-05-19T23:57:19.802Z,1.58
2023-05-19T23:59:49.015Z,1.80
